createdAt,value
2023-04-16T00:04:15.316Z,6.07
2023-04-16T00:36:37.187Z,6.20
2023-04-16T00:39:11.065Z,6.53
2023-04-16T00:41:45.105Z,6.63
2023-04-16T00:44:23.815Z,6.47
2023-04-16T00:50:40.909Z,6.32
2023-04-16T00:53:17.565Z,6.33
2023-04-16T00:55:50.949Z,6.65
2023-04-16T00:58:26.119Z,6.65
2023-04-16T01:00:58.605Z,7.03
2023-04-16T01:03:43.932Z,6.97
2023-04-16T01:06:19.529Z,7.43
2023-04-16T01:08:54.269Z,6.97
2023-04-16T01:25:15.997Z,6.18
2023-04-16T01:27:57.625Z,6.50
2023-04-16T01:30:32.678Z,5.95
2023-04-16T01:33:32.395Z,6.88
2023-04-16T01:36:07.936Z,6.68
2023-04-16T01:38:40.588Z,6.88
2023-04-16T01:41:15.624Z,6.38
2023-04-16T01:43:48.395Z,6.82
2023-04-16T01:46:27.401Z,6.90
2023-04-16T01:49:01.867Z,7.15
2023-04-16T01:51:35.963Z,7.05
2023-04-16T01:54:09.630Z,6.72
2023-04-16T01:56:42.236Z,6.30
2023-04-16T01:59:21.991Z,6.77
2023-04-16T02:01:54.737Z,7.07
2023-04-16T02:04:27.682Z,6.43
2023-04-16T02:07:03.019Z,7.90
2023-04-16T02:09:38.553Z,7.22
2023-04-16T02:12:12.556Z,6.47
2023-04-16T02:14:46.453Z,7.32
2023-04-16T02:29:43.176Z,6.40
2023-04-16T02:32:20.832Z,6.50
2023-04-16T02:34:53.390Z,6.63
2023-04-16T02:37:28.902Z,6.72
2023-04-16T02:40:04.008Z,7.22
2023-04-16T02:42:37.693Z,6.50
2023-04-16T02:45:11.800Z,6.55
2023-04-16T02:47:46.147Z,6.88
2023-04-16T02:50:19.257Z,6.68
2023-04-16T02:52:51.827Z,7.18
2023-04-16T02:55:24.650Z,6.87
2023-04-16T02:57:57.047Z,6.55
2023-04-16T03:00:29.415Z,6.80
2023-04-16T03:03:01.999Z,6.18
2023-04-16T03:05:34.928Z,6.35
2023-04-16T03:08:08.981Z,6.38
2023-04-16T03:10:43.352Z,7.05
2023-04-16T03:13:16.064Z,6.88
2023-04-16T03:15:50.983Z,6.65
2023-04-16T03:18:23.543Z,6.95
2023-04-16T03:20:56.073Z,6.82
2023-04-16T03:23:28.554Z,6.72
2023-04-16T03:26:01.482Z,7.03
2023-04-16T03:28:35.930Z,6.43
2023-04-16T03:31:09.414Z,6.43
2023-04-16T03:33:46.377Z,6.95
2023-04-16T03:36:21.364Z,6.30
2023-04-16T03:38:54.844Z,6.40
2023-04-16T03:41:30.762Z,6.75
2023-04-16T03:44:04.497Z,6.15
2023-04-16T03:46:38.596Z,6.35
2023-04-16T03:49:11.911Z,6.43
2023-04-16T03:51:44.415Z,6.72
2023-04-16T03:54:35.627Z,6.68
2023-04-16T04:06:07.655Z,6.25
2023-04-16T04:08:44.262Z,6.60
2023-04-16T04:11:21.891Z,6.30
2023-04-16T04:13:58.628Z,6.80
2023-04-16T04:37:46.643Z,5.78
2023-04-16T04:40:24.343Z,6.00
2023-04-16T04:42:58.303Z,6.10
2023-04-16T04:45:31.955Z,5.47
2023-04-16T04:48:08.419Z,6.45
2023-04-16T04:50:43.129Z,6.32
2023-04-16T04:53:18.224Z,6.35
2023-04-16T04:55:55.661Z,6.10
2023-04-16T04:58:31.907Z,6.72
2023-04-16T05:01:04.945Z,5.93
2023-04-16T05:03:42.039Z,6.53
2023-04-16T05:06:16.942Z,5.90
2023-04-16T05:08:49.504Z,6.20
2023-04-16T05:11:21.935Z,6.60
2023-04-16T05:13:54.809Z,6.33
2023-04-16T05:16:27.456Z,5.75
2023-04-16T05:19:02.387Z,6.07
2023-04-16T05:21:37.209Z,6.03
2023-04-16T05:32:17.504Z,5.80
2023-04-16T05:51:27.268Z,6.13
2023-04-16T06:05:29.476Z,6.45
2023-04-16T06:08:04.875Z,6.47
2023-04-16T06:10:39.919Z,6.90
2023-04-16T06:13:13.365Z,6.28
2023-04-16T06:15:48.743Z,6.40
2023-04-16T06:26:07.147Z,6.05
2023-04-16T06:28:39.667Z,6.07
2023-04-16T06:31:12.167Z,6.23
2023-04-16T06:33:46.075Z,6.28
2023-04-16T06:36:19.791Z,6.85
2023-04-16T06:38:53.324Z,6.13
2023-04-16T06:41:26.839Z,6.18
2023-04-16T06:43:59.238Z,5.93
2023-04-16T06:46:33.044Z,6.00
2023-04-16T06:49:05.843Z,5.93
2023-04-16T07:03:46.905Z,6.47
2023-04-16T07:06:19.586Z,6.00
2023-04-16T07:08:54.376Z,6.97
2023-04-16T07:11:27.248Z,6.75
2023-04-16T07:13:59.720Z,5.82
2023-04-16T07:16:34.503Z,6.35
2023-04-16T07:19:08.821Z,5.65
2023-04-16T07:26:27.425Z,5.03
2023-04-16T07:29:01.019Z,5.57
2023-04-16T07:31:41.932Z,5.82
2023-04-16T07:34:17.477Z,5.80
2023-04-16T07:36:49.790Z,5.40
2023-04-16T07:39:22.433Z,5.57
2023-04-16T07:41:55.050Z,5.20
2023-04-16T07:44:29.934Z,5.15
2023-04-16T07:47:05.810Z,5.22
2023-04-16T08:16:54.810Z,4.28
2023-04-16T08:19:27.334Z,4.30
2023-04-16T08:22:02.234Z,5.32
2023-04-16T08:24:48.112Z,5.22
2023-04-16T08:39:44.387Z,4.90
2023-04-16T08:42:29.463Z,4.80
2023-04-16T08:45:13.842Z,5.10
2023-04-16T09:03:57.534Z,4.80
2023-04-16T09:06:30.153Z,5.15
2023-04-16T09:09:19.317Z,5.20
2023-04-16T09:25:34.261Z,4.63
2023-04-16T09:48:46.616Z,4.07
2023-04-16T09:51:21.502Z,3.80
2023-04-16T09:53:57.128Z,3.97
2023-04-16T09:56:32.373Z,3.80
2023-04-16T09:59:04.982Z,4.18
2023-04-16T10:01:40.719Z,3.42
2023-04-16T10:04:13.503Z,3.45
2023-04-16T10:07:06.825Z,3.50
2023-04-16T10:09:40.964Z,3.40
2023-04-16T11:17:44.919Z,2.20
2023-04-16T11:20:26.288Z,2.35
2023-04-16T11:22:59.371Z,2.55
2023-04-16T11:25:34.248Z,2.20
2023-04-16T11:28:09.211Z,2.10
2023-04-16T11:30:41.853Z,2.38
2023-04-16T11:33:14.507Z,2.40
2023-04-16T11:35:57.714Z,2.00
2023-04-16T20:34:00.968Z,1.05
2023-04-16T20:36:33.462Z,1.02
2023-04-16T20:39:08.331Z,1.30
2023-04-16T20:41:44.802Z,0.90
2023-04-16T20:44:18.852Z,1.30
2023-04-16T20:46:55.547Z,1.20
2023-04-16T20:49:30.294Z,1.50
2023-04-16T20:52:03.084Z,1.30
2023-04-16T20:54:38.355Z,1.00
2023-04-16T20:57:10.823Z,1.17
2023-04-16T20:59:43.093Z,1.47
2023-04-16T21:02:15.538Z,2.20
2023-04-16T21:04:48.147Z,1.48
2023-04-16T21:07:21.004Z,1.30
2023-04-16T21:09:53.574Z,1.30
2023-04-16T21:12:26.184Z,1.30
2023-04-16T21:14:59.867Z,1.20
2023-04-16T21:17:32.757Z,1.13
2023-04-16T21:20:07.120Z,1.08
2023-04-16T21:22:39.454Z,1.40
2023-04-16T21:25:13.132Z,1.37
2023-04-16T21:27:46.835Z,1.30
2023-04-16T21:30:19.616Z,1.30
2023-04-16T21:32:53.756Z,1.30
2023-04-16T21:35:26.974Z,1.30
2023-04-16T21:38:01.601Z,1.30
2023-04-16T21:40:34.020Z,1.45
2023-04-16T21:43:06.800Z,1.30
2023-04-16T21:45:39.785Z,1.40
2023-04-16T21:50:45.034Z,1.40
2023-04-16T21:53:17.421Z,1.38
2023-04-16T21:55:51.325Z,1.30
2023-04-16T21:58:25.905Z,1.40
2023-04-16T22:00:58.310Z,1.23
2023-04-16T22:03:31.316Z,1.45
2023-04-16T22:06:05.321Z,1.35
2023-04-16T22:11:10.268Z,1.10
2023-04-16T22:16:15.867Z,1.30
2023-04-16T22:18:48.210Z,1.30
2023-04-16T22:21:20.832Z,1.30
2023-04-16T22:23:53.399Z,1.38
2023-04-16T22:26:27.950Z,1.60
2023-04-16T22:29:03.217Z,1.50
2023-04-16T22:31:36.459Z,1.40
2023-04-16T22:34:08.895Z,1.17
2023-04-16T22:36:41.810Z,1.30
2023-04-16T22:39:19.685Z,1.10
2023-04-16T22:41:52.040Z,1.20
2023-04-16T22:44:24.423Z,1.27
2023-04-16T22:46:56.884Z,1.27
2023-04-16T22:49:35.318Z,1.10
2023-04-16T22:52:09.881Z,0.95
2023-04-16T22:54:42.135Z,1.15
2023-04-16T22:57:17.441Z,1.10
2023-04-16T22:59:50.783Z,1.08
2023-04-16T23:04:55.406Z,1.00
2023-04-16T23:07:27.795Z,1.10
2023-04-16T23:10:00.240Z,1.23
2023-04-16T23:12:32.622Z,1.20
2023-04-16T23:15:06.910Z,1.23
2023-04-16T23:17:39.803Z,1.17
2023-04-16T23:20:13.369Z,1.20
2023-04-16T23:22:46.634Z,0.93
2023-04-16T23:25:19.134Z,1.23
2023-04-16T23:27:51.447Z,1.10
2023-04-16T23:30:24.741Z,1.35
2023-04-16T23:32:57.131Z,1.13
2023-04-16T23:35:30.611Z,1.00
2023-04-16T23:38:03.439Z,1.10
2023-04-16T23:40:35.807Z,0.90
2023-04-16T23:43:10.661Z,1.25
2023-04-16T23:45:43.117Z,1.10
2023-04-16T23:48:16.271Z,1.17
2023-04-16T23:50:49.027Z,1.08
2023-04-16T23:53:21.460Z,1.00
2023-04-16T23:55:54.662Z,1.37
2023-04-16T23:58:29.706Z,1.20
